Aviation Digital Data Service (ADDS)

Output produced by METARs form (0226 UTC 15 August 2020)
found at http://www.aviationweather.gov/metar/data/
 
METAR text: RJTT 150200Z 15007KT 110V190 9999 FEW025 33/27 Q1006 NOSIG RMK 1CU025 A2973
Conditions at: RJTT (TOKYO INTL AIRPO, JP) observed 0200 UTC 15 August 2020
Temperature: 33.0°C (91°F)
Dewpoint: 27.0°C (81°F) [RH = 71%]
Pressure (altimeter): 29.70 inches Hg (1006.0 mb)
Winds: from the SSE (150 degrees) at 8 MPH (7 knots; 3.6 m/s)
Visibility: 6 or more miles (10+ km)
Ceiling: at least 12,000 feet AGL
Clouds: few clouds at 2500 feet AGL
Weather: no significant weather observed at this time

METAR text: RJTT 150130Z 11004KT 070V150 9999 FEW020 32/27 Q1007 BECMG 18010KT RMK 2CU020 A2974
Conditions at: RJTT (TOKYO INTL AIRPO, JP) observed 0130 UTC 15 August 2020
Temperature: 32.0°C (90°F)
Dewpoint: 27.0°C (81°F) [RH = 75%]
Pressure (altimeter): 29.73 inches Hg (1007.0 mb)
Winds: from the ESE (110 degrees) at 5 MPH (4 knots; 2.1 m/s)
Visibility: 6 or more miles (10+ km)
Ceiling: at least 12,000 feet AGL
Clouds: few clouds at 2000 feet AGL
Weather: no significant weather observed at this time

METAR text: RJTT 150100Z 10004KT 9999 FEW020 32/27 Q1007 NOSIG RMK 2CU020 A2975
Conditions at: RJTT (TOKYO INTL AIRPO, JP) observed 0100 UTC 15 August 2020
Temperature: 32.0°C (90°F)
Dewpoint: 27.0°C (81°F) [RH = 75%]
Pressure (altimeter): 29.73 inches Hg (1007.0 mb)
Winds: from the E (100 degrees) at 5 MPH (4 knots; 2.1 m/s)
Visibility: 6 or more miles (10+ km)
Ceiling: at least 12,000 feet AGL
Clouds: few clouds at 2000 feet AGL
Weather: no significant weather observed at this time

METAR text: RJTT 150030Z 16004KT 130V220 9999 FEW020 31/27 Q1007 NOSIG RMK 2CU020 A2975
Conditions at: RJTT (TOKYO INTL AIRPO, JP) observed 0030 UTC 15 August 2020
Temperature: 31.0°C (88°F)
Dewpoint: 27.0°C (81°F) [RH = 79%]
Pressure (altimeter): 29.73 inches Hg (1007.0 mb)
Winds: from the SSE (160 degrees) at 5 MPH (4 knots; 2.1 m/s)
Visibility: 6 or more miles (10+ km)
Ceiling: at least 12,000 feet AGL
Clouds: few clouds at 2000 feet AGL
Weather: no significant weather observed at this time

METAR text: RJTT 150000Z 15005KT 110V210 9999 FEW020 31/27 Q1007 NOSIG RMK 2CU020 A2975
Conditions at: RJTT (TOKYO INTL AIRPO, JP) observed 0000 UTC 15 August 2020
Temperature: 31.0°C (88°F)
Dewpoint: 27.0°C (81°F) [RH = 79%]
Pressure (altimeter): 29.73 inches Hg (1007.0 mb)
Winds: from the SSE (150 degrees) at 6 MPH (5 knots; 2.6 m/s)
Visibility: 6 or more miles (10+ km)
Ceiling: at least 12,000 feet AGL
Clouds: few clouds at 2000 feet AGL
Weather: no significant weather observed at this time

METAR text: RJTT 142330Z 13004KT 080V220 9999 FEW015 BKN020 31/27 Q1007 NOSIG RMK 1CU015 5CU020 A2975
Conditions at: RJTT (TOKYO INTL AIRPO, JP) observed 2330 UTC 14 August 2020
Temperature: 31.0°C (88°F)
Dewpoint: 27.0°C (81°F) [RH = 79%]
Pressure (altimeter): 29.73 inches Hg (1007.0 mb)
Winds: from the SE (130 degrees) at 5 MPH (4 knots; 2.1 m/s)
Visibility: 6 or more miles (10+ km)
Ceiling: 2000 feet AGL
Clouds: few clouds at 1500 feet AGL
broken clouds at 2000 feet AGL
Weather: no significant weather observed at this time

METAR text: RJTT 142300Z 10003KT 070V140 9999 FEW015 BKN020 30/27 Q1007 NOSIG RMK 1CU015 7CU020 A2976
Conditions at: RJTT (TOKYO INTL AIRPO, JP) observed 2300 UTC 14 August 2020
Temperature: 30.0°C (86°F)
Dewpoint: 27.0°C (81°F) [RH = 84%]
Pressure (altimeter): 29.73 inches Hg (1007.0 mb)
Winds: from the E (100 degrees) at 3 MPH (3 knots; 1.5 m/s)
Visibility: 6 or more miles (10+ km)
Ceiling: 2000 feet AGL
Clouds: few clouds at 1500 feet AGL
broken clouds at 2000 feet AGL
Weather: no significant weather observed at this time

METAR text: RJTT 142230Z 04003KT 360V080 9999 FEW012 BKN015 30/26 Q1008 BECMG 12005KT RMK 1CU012 7CU015 A2977
Conditions at: RJTT (TOKYO INTL AIRPO, JP) observed 2230 UTC 14 August 2020
Temperature: 30.0°C (86°F)
Dewpoint: 26.0°C (79°F) [RH = 79%]
Pressure (altimeter): 29.76 inches Hg (1008.0 mb)
Winds: from the NE (40 degrees) at 3 MPH (3 knots; 1.5 m/s)
Visibility: 6 or more miles (10+ km)
Ceiling: 1500 feet AGL
Clouds: few clouds at 1200 feet AGL
broken clouds at 1500 feet AGL
Weather: no significant weather observed at this time

METAR text: RJTT 142200Z 33003KT 9999 FEW012 BKN015 29/26 Q1007 BECMG 12005KT RMK 1CU012 5CU015 A2976
Conditions at: RJTT (TOKYO INTL AIRPO, JP) observed 2200 UTC 14 August 2020
Temperature: 29.0°C (84°F)
Dewpoint: 26.0°C (79°F) [RH = 84%]
Pressure (altimeter): 29.73 inches Hg (1007.0 mb)
Winds: from the NNW (330 degrees) at 3 MPH (3 knots; 1.5 m/s)
Visibility: 6 or more miles (10+ km)
Ceiling: 1500 feet AGL
Clouds: few clouds at 1200 feet AGL
broken clouds at 1500 feet AGL
Weather: no significant weather observed at this time

METAR text: RJTT 142130Z 19006KT 9999 FEW012 BKN015 29/25 Q1007 NOSIG RMK 2CU012 6CU015 A2975
Conditions at: RJTT (TOKYO INTL AIRPO, JP) observed 2130 UTC 14 August 2020
Temperature: 29.0°C (84°F)
Dewpoint: 25.0°C (77°F) [RH = 79%]
Pressure (altimeter): 29.73 inches Hg (1007.0 mb)
Winds: from the S (190 degrees) at 7 MPH (6 knots; 3.1 m/s)
Visibility: 6 or more miles (10+ km)
Ceiling: 1500 feet AGL
Clouds: few clouds at 1200 feet AGL
broken clouds at 1500 feet AGL
Weather: no significant weather observed at this time

METAR text: RJTT 142100Z 19005KT 9999 FEW010 SCT015 28/25 Q1007 NOSIG RMK 1CU010 3CU015 A2975
Conditions at: RJTT (TOKYO INTL AIRPO, JP) observed 2100 UTC 14 August 2020
Temperature: 28.0°C (82°F)
Dewpoint: 25.0°C (77°F) [RH = 84%]
Pressure (altimeter): 29.73 inches Hg (1007.0 mb)
Winds: from the S (190 degrees) at 6 MPH (5 knots; 2.6 m/s)
Visibility: 6 or more miles (10+ km)
Ceiling: at least 12,000 feet AGL
Clouds: few clouds at 1000 feet AGL
scattered clouds at 1500 feet AGL
Weather: no significant weather observed at this time

METAR text: RJTT 142030Z 22003KT 9999 FEW010 SCT014 BKN017 28/26 Q1007 NOSIG RMK 1CU010 3CU014 5CU017 A2975
Conditions at: RJTT (TOKYO INTL AIRPO, JP) observed 2030 UTC 14 August 2020
Temperature: 28.0°C (82°F)
Dewpoint: 26.0°C (79°F) [RH = 89%]
Pressure (altimeter): 29.73 inches Hg (1007.0 mb)
Winds: from the SW (220 degrees) at 3 MPH (3 knots; 1.5 m/s)
Visibility: 6 or more miles (10+ km)
Ceiling: 1700 feet AGL
Clouds: few clouds at 1000 feet AGL
scattered clouds at 1400 feet AGL
broken clouds at 1700 feet AGL
Weather: no significant weather observed at this time

METAR text: RJTT 142000Z 28004KT 240V310 9999 FEW008 SCT014 BKN017 28/25 Q1007 NOSIG RMK 1ST008 3CU014 6CU017 A2975
Conditions at: RJTT (TOKYO INTL AIRPO, JP) observed 2000 UTC 14 August 2020
Temperature: 28.0°C (82°F)
Dewpoint: 25.0°C (77°F) [RH = 84%]
Pressure (altimeter): 29.73 inches Hg (1007.0 mb)
Winds: from the W (280 degrees) at 5 MPH (4 knots; 2.1 m/s)
Visibility: 6 or more miles (10+ km)
Ceiling: 1700 feet AGL
Clouds: few clouds at 800 feet AGL
scattered clouds at 1400 feet AGL
broken clouds at 1700 feet AGL
Weather: no significant weather observed at this time

METAR text: RJTT 141930Z 29004KT 260V340 9999 FEW008 SCT014 BKN017 28/26 Q1007 TEMPO FEW005 BKN008 RMK 1ST008 4CU014 6CU017 A2975
Conditions at: RJTT (TOKYO INTL AIRPO, JP) observed 1930 UTC 14 August 2020
Temperature: 28.0°C (82°F)
Dewpoint: 26.0°C (79°F) [RH = 89%]
Pressure (altimeter): 29.73 inches Hg (1007.0 mb)
Winds: from the WNW (290 degrees) at 5 MPH (4 knots; 2.1 m/s)
Visibility: 6 or more miles (10+ km)
Ceiling: 1700 feet AGL
Clouds: few clouds at 800 feet AGL
scattered clouds at 1400 feet AGL
broken clouds at 1700 feet AGL
Weather: no significant weather observed at this time

METAR text: RJTT 141912Z 27003KT 230V310 9999 FEW008 SCT014 28/26 Q1007 RMK 1ST008 4CU014 A2975
Conditions at: RJTT (TOKYO INTL AIRPO, JP) observed 1912 UTC 14 August 2020
Temperature: 28.0°C (82°F)
Dewpoint: 26.0°C (79°F) [RH = 89%]
Pressure (altimeter): 29.73 inches Hg (1007.0 mb)
Winds: from the W (270 degrees) at 3 MPH (3 knots; 1.5 m/s)
Visibility: 6 or more miles (10+ km)
Ceiling: at least 12,000 feet AGL
Clouds: few clouds at 800 feet AGL
scattered clouds at 1400 feet AGL
Weather: no significant weather observed at this time

METAR text: RJTT 141900Z 29003KT 250V320 9999 FEW007 SCT010 BKN014 28/26 Q1007 TEMPO FEW005 BKN008
Conditions at: RJTT (TOKYO INTL AIRPO, JP) observed 1900 UTC 14 August 2020
Temperature: 28.0°C (82°F)
Dewpoint: 26.0°C (79°F) [RH = 89%]
Pressure (altimeter): 29.73 inches Hg (1007.0 mb)
Winds: from the WNW (290 degrees) at 3 MPH (3 knots; 1.5 m/s)
Visibility: 6 or more miles (10+ km)
Ceiling: 1400 feet AGL
Clouds: few clouds at 700 feet AGL
scattered clouds at 1000 feet AGL
broken clouds at 1400 feet AGL
Weather: no significant weather observed at this time

METAR text: RJTT 141830Z 20005KT 170V230 9999 FEW008 SCT010 BKN014 28/26 Q1007 NOSIG RMK 1ST008 3CU010 6CU014 A2974
Conditions at: RJTT (TOKYO INTL AIRPO, JP) observed 1830 UTC 14 August 2020
Temperature: 28.0°C (82°F)
Dewpoint: 26.0°C (79°F) [RH = 89%]
Pressure (altimeter): 29.73 inches Hg (1007.0 mb)
Winds: from the SSW (200 degrees) at 6 MPH (5 knots; 2.6 m/s)
Visibility: 6 or more miles (10+ km)
Ceiling: 1400 feet AGL
Clouds: few clouds at 800 feet AGL
scattered clouds at 1000 feet AGL
broken clouds at 1400 feet AGL
Weather: no significant weather observed at this time

METAR text: RJTT 141800Z 20008KT 9999 FEW007 BKN014 BKN017 29/26 Q1007 NOSIG RMK 1ST007 5CU014 7CU017 A2974
Conditions at: RJTT (TOKYO INTL AIRPO, JP) observed 1800 UTC 14 August 2020
Temperature: 29.0°C (84°F)
Dewpoint: 26.0°C (79°F) [RH = 84%]
Pressure (altimeter): 29.73 inches Hg (1007.0 mb)
Winds: from the SSW (200 degrees) at 9 MPH (8 knots; 4.1 m/s)
Visibility: 6 or more miles (10+ km)
Ceiling: 1400 feet AGL
Clouds: few clouds at 700 feet AGL
broken clouds at 1400 feet AGL
broken clouds at 1700 feet AGL
Weather: no significant weather observed at this time

METAR text: RJTT 141730Z 19009KT 9999 FEW008 BKN010 BKN015 28/27 Q1007 TEMPO FEW005 BKN008 RMK 1ST008 5CU010 7CU015 A2974
Conditions at: RJTT (TOKYO INTL AIRPO, JP) observed 1730 UTC 14 August 2020
Temperature: 28.0°C (82°F)
Dewpoint: 27.0°C (81°F) [RH = 94%]
Pressure (altimeter): 29.73 inches Hg (1007.0 mb)
Winds: from the S (190 degrees) at 10 MPH (9 knots; 4.6 m/s)
Visibility: 6 or more miles (10+ km)
Ceiling: 1000 feet AGL
Clouds: few clouds at 800 feet AGL
broken clouds at 1000 feet AGL
broken clouds at 1500 feet AGL
Weather: no significant weather observed at this time

METAR text: RJTT 141700Z 20010KT 9999 FEW007 BKN012 28/26 Q1007 NOSIG RMK 1ST007 5CU012 A2974
Conditions at: RJTT (TOKYO INTL AIRPO, JP) observed 1700 UTC 14 August 2020
Temperature: 28.0°C (82°F)
Dewpoint: 26.0°C (79°F) [RH = 89%]
Pressure (altimeter): 29.73 inches Hg (1007.0 mb)
Winds: from the SSW (200 degrees) at 12 MPH (10 knots; 5.1 m/s)
Visibility: 6 or more miles (10+ km)
Ceiling: 1200 feet AGL
Clouds: few clouds at 700 feet AGL
broken clouds at 1200 feet AGL
Weather: no significant weather observed at this time

METAR text: RJTT 141630Z 19011KT 9999 FEW007 BKN012 28/26 Q1007 NOSIG RMK 1ST007 5CU012 A2974
Conditions at: RJTT (TOKYO INTL AIRPO, JP) observed 1630 UTC 14 August 2020
Temperature: 28.0°C (82°F)
Dewpoint: 26.0°C (79°F) [RH = 89%]
Pressure (altimeter): 29.73 inches Hg (1007.0 mb)
Winds: from the S (190 degrees) at 13 MPH (11 knots; 5.7 m/s)
Visibility: 6 or more miles (10+ km)
Ceiling: 1200 feet AGL
Clouds: few clouds at 700 feet AGL
broken clouds at 1200 feet AGL
Weather: no significant weather observed at this time

METAR text: RJTT 141600Z 19011KT 9999 FEW008 SCT010 28/26 Q1007 NOSIG RMK 1ST008 4ST010 A2975
Conditions at: RJTT (TOKYO INTL AIRPO, JP) observed 1600 UTC 14 August 2020
Temperature: 28.0°C (82°F)
Dewpoint: 26.0°C (79°F) [RH = 89%]
Pressure (altimeter): 29.73 inches Hg (1007.0 mb)
Winds: from the S (190 degrees) at 13 MPH (11 knots; 5.7 m/s)
Visibility: 6 or more miles (10+ km)
Ceiling: at least 12,000 feet AGL
Clouds: few clouds at 800 feet AGL
scattered clouds at 1000 feet AGL
Weather: no significant weather observed at this time

METAR text: RJTT 141530Z 19011KT 9999 FEW008 28/26 Q1007 NOSIG RMK 1ST008 A2975
Conditions at: RJTT (TOKYO INTL AIRPO, JP) observed 1530 UTC 14 August 2020
Temperature: 28.0°C (82°F)
Dewpoint: 26.0°C (79°F) [RH = 89%]
Pressure (altimeter): 29.73 inches Hg (1007.0 mb)
Winds: from the S (190 degrees) at 13 MPH (11 knots; 5.7 m/s)
Visibility: 6 or more miles (10+ km)
Ceiling: at least 12,000 feet AGL
Clouds: few clouds at 800 feet AGL
Weather: no significant weather observed at this time

METAR text: RJTT 141500Z 19010KT 9999 FEW005 SCT010 28/27 Q1007 NOSIG RMK 1ST005 3ST010 A2976
Conditions at: RJTT (TOKYO INTL AIRPO, JP) observed 1500 UTC 14 August 2020
Temperature: 28.0°C (82°F)
Dewpoint: 27.0°C (81°F) [RH = 94%]
Pressure (altimeter): 29.73 inches Hg (1007.0 mb)
Winds: from the S (190 degrees) at 12 MPH (10 knots; 5.1 m/s)
Visibility: 6 or more miles (10+ km)
Ceiling: at least 12,000 feet AGL
Clouds: few clouds at 500 feet AGL
scattered clouds at 1000 feet AGL
Weather: no significant weather observed at this time

METAR text: RJTT 141430Z 18011KT 9999 FEW005 SCT010 28/27 Q1007 NOSIG RMK 1ST005 3ST010 A2976
Conditions at: RJTT (TOKYO INTL AIRPO, JP) observed 1430 UTC 14 August 2020
Temperature: 28.0°C (82°F)
Dewpoint: 27.0°C (81°F) [RH = 94%]
Pressure (altimeter): 29.73 inches Hg (1007.0 mb)
Winds: from the S (180 degrees) at 13 MPH (11 knots; 5.7 m/s)
Visibility: 6 or more miles (10+ km)
Ceiling: at least 12,000 feet AGL
Clouds: few clouds at 500 feet AGL
scattered clouds at 1000 feet AGL
Weather: no significant weather observed at this time

METAR text: RJTT 141400Z 18011KT 9999 FEW007 28/27 Q1008 NOSIG RMK 1ST007 A2977
Conditions at: RJTT (TOKYO INTL AIRPO, JP) observed 1400 UTC 14 August 2020
Temperature: 28.0°C (82°F)
Dewpoint: 27.0°C (81°F) [RH = 94%]
Pressure (altimeter): 29.76 inches Hg (1008.0 mb)
Winds: from the S (180 degrees) at 13 MPH (11 knots; 5.7 m/s)
Visibility: 6 or more miles (10+ km)
Ceiling: at least 12,000 feet AGL
Clouds: few clouds at 700 feet AGL
Weather: no significant weather observed at this time

METAR text: RJTT 141330Z 18012KT 9999 FEW008 SCT012 29/27 Q1008 NOSIG RMK 1ST008 3CU012 A2977
Conditions at: RJTT (TOKYO INTL AIRPO, JP) observed 1330 UTC 14 August 2020
Temperature: 29.0°C (84°F)
Dewpoint: 27.0°C (81°F) [RH = 89%]
Pressure (altimeter): 29.76 inches Hg (1008.0 mb)
Winds: from the S (180 degrees) at 14 MPH (12 knots; 6.2 m/s)
Visibility: 6 or more miles (10+ km)
Ceiling: at least 12,000 feet AGL
Clouds: few clouds at 800 feet AGL
scattered clouds at 1200 feet AGL
Weather: no significant weather observed at this time

METAR text: RJTT 141300Z 18013KT 9999 FEW008 BKN012 29/27 Q1008 NOSIG RMK 1ST008 5CU012 A2978
Conditions at: RJTT (TOKYO INTL AIRPO, JP) observed 1300 UTC 14 August 2020
Temperature: 29.0°C (84°F)
Dewpoint: 27.0°C (81°F) [RH = 89%]
Pressure (altimeter): 29.76 inches Hg (1008.0 mb)
Winds: from the S (180 degrees) at 15 MPH (13 knots; 6.7 m/s)
Visibility: 6 or more miles (10+ km)
Ceiling: 1200 feet AGL
Clouds: few clouds at 800 feet AGL
broken clouds at 1200 feet AGL
Weather: no significant weather observed at this time

METAR text: RJTT 141230Z 18011KT 9999 FEW008 SCT015 29/26 Q1008 NOSIG RMK 1ST008 4CU015 A2979
Conditions at: RJTT (TOKYO INTL AIRPO, JP) observed 1230 UTC 14 August 2020
Temperature: 29.0°C (84°F)
Dewpoint: 26.0°C (79°F) [RH = 84%]
Pressure (altimeter): 29.76 inches Hg (1008.0 mb)
Winds: from the S (180 degrees) at 13 MPH (11 knots; 5.7 m/s)
Visibility: 6 or more miles (10+ km)
Ceiling: at least 12,000 feet AGL
Clouds: few clouds at 800 feet AGL
scattered clouds at 1500 feet AGL
Weather: no significant weather observed at this time

METAR text: RJTT 141200Z 19011KT 9999 FEW010 SCT015 29/27 Q1009 NOSIG RMK 1CU010 4CU015 A2979
Conditions at: RJTT (TOKYO INTL AIRPO, JP) observed 1200 UTC 14 August 2020
Temperature: 29.0°C (84°F)
Dewpoint: 27.0°C (81°F) [RH = 89%]
Pressure (altimeter): 29.79 inches Hg (1009.0 mb)
Winds: from the S (190 degrees) at 13 MPH (11 knots; 5.7 m/s)
Visibility: 6 or more miles (10+ km)
Ceiling: at least 12,000 feet AGL
Clouds: few clouds at 1000 feet AGL
scattered clouds at 1500 feet AGL
Weather: no significant weather observed at this time

METAR text: RJTT 141130Z 19011KT 9999 FEW015 30/26 Q1008 NOSIG RMK 1CU015 A2979
Conditions at: RJTT (TOKYO INTL AIRPO, JP) observed 1130 UTC 14 August 2020
Temperature: 30.0°C (86°F)
Dewpoint: 26.0°C (79°F) [RH = 79%]
Pressure (altimeter): 29.76 inches Hg (1008.0 mb)
Winds: from the S (190 degrees) at 13 MPH (11 knots; 5.7 m/s)
Visibility: 6 or more miles (10+ km)
Ceiling: at least 12,000 feet AGL
Clouds: few clouds at 1500 feet AGL
Weather: no significant weather observed at this time

METAR text: RJTT 141100Z 20011KT 9999 FEW020 SCT030 30/26 Q1008 NOSIG RMK 1CU020 3CU030 A2979
Conditions at: RJTT (TOKYO INTL AIRPO, JP) observed 1100 UTC 14 August 2020
Temperature: 30.0°C (86°F)
Dewpoint: 26.0°C (79°F) [RH = 79%]
Pressure (altimeter): 29.76 inches Hg (1008.0 mb)
Winds: from the SSW (200 degrees) at 13 MPH (11 knots; 5.7 m/s)
Visibility: 6 or more miles (10+ km)
Ceiling: at least 12,000 feet AGL
Clouds: few clouds at 2000 feet AGL
scattered clouds at 3000 feet AGL
Weather: no significant weather observed at this time

METAR text: RJTT 141030Z 20012KT 9999 FEW020 31/26 Q1008 NOSIG RMK 1CU020 A2978
Conditions at: RJTT (TOKYO INTL AIRPO, JP) observed 1030 UTC 14 August 2020
Temperature: 31.0°C (88°F)
Dewpoint: 26.0°C (79°F) [RH = 75%]
Pressure (altimeter): 29.76 inches Hg (1008.0 mb)
Winds: from the SSW (200 degrees) at 14 MPH (12 knots; 6.2 m/s)
Visibility: 6 or more miles (10+ km)
Ceiling: at least 12,000 feet AGL
Clouds: few clouds at 2000 feet AGL
Weather: no significant weather observed at this time

METAR text: RJTT 141000Z 20013KT 9999 FEW020 SCT025 31/26 Q1008 NOSIG RMK 1CU020 4CU025 A2977
Conditions at: RJTT (TOKYO INTL AIRPO, JP) observed 1000 UTC 14 August 2020
Temperature: 31.0°C (88°F)
Dewpoint: 26.0°C (79°F) [RH = 75%]
Pressure (altimeter): 29.76 inches Hg (1008.0 mb)
Winds: from the SSW (200 degrees) at 15 MPH (13 knots; 6.7 m/s)
Visibility: 6 or more miles (10+ km)
Ceiling: at least 12,000 feet AGL
Clouds: few clouds at 2000 feet AGL
scattered clouds at 2500 feet AGL
Weather: no significant weather observed at this time

METAR text: RJTT 140930Z 21010KT 9999 FEW025 BKN030 31/26 Q1008 NOSIG RMK 1CU025 6CU030 A2977
Conditions at: RJTT (TOKYO INTL AIRPO, JP) observed 0930 UTC 14 August 2020
Temperature: 31.0°C (88°F)
Dewpoint: 26.0°C (79°F) [RH = 75%]
Pressure (altimeter): 29.76 inches Hg (1008.0 mb)
Winds: from the SSW (210 degrees) at 12 MPH (10 knots; 5.1 m/s)
Visibility: 6 or more miles (10+ km)
Ceiling: 3000 feet AGL
Clouds: few clouds at 2500 feet AGL
broken clouds at 3000 feet AGL
Weather: no significant weather observed at this time

METAR text: RJTT 140900Z 20012KT 9999 FEW025 SCT030 32/26 Q1007 NOSIG RMK 1CU025 4CU030 A2976
Conditions at: RJTT (TOKYO INTL AIRPO, JP) observed 0900 UTC 14 August 2020
Temperature: 32.0°C (90°F)
Dewpoint: 26.0°C (79°F) [RH = 71%]
Pressure (altimeter): 29.73 inches Hg (1007.0 mb)
Winds: from the SSW (200 degrees) at 14 MPH (12 knots; 6.2 m/s)
Visibility: 6 or more miles (10+ km)
Ceiling: at least 12,000 feet AGL
Clouds: few clouds at 2500 feet AGL
scattered clouds at 3000 feet AGL
Weather: no significant weather observed at this time

METAR text: RJTT 140830Z 19011KT 9999 FEW025 BKN030 32/26 Q1007 NOSIG RMK 1CU025 5CU030 A2975
Conditions at: RJTT (TOKYO INTL AIRPO, JP) observed 0830 UTC 14 August 2020
Temperature: 32.0°C (90°F)
Dewpoint: 26.0°C (79°F) [RH = 71%]
Pressure (altimeter): 29.73 inches Hg (1007.0 mb)
Winds: from the S (190 degrees) at 13 MPH (11 knots; 5.7 m/s)
Visibility: 6 or more miles (10+ km)
Ceiling: 3000 feet AGL
Clouds: few clouds at 2500 feet AGL
broken clouds at 3000 feet AGL
Weather: no significant weather observed at this time

METAR text: RJTT 140800Z 20009KT 9999 FEW025 SCT030 32/26 Q1007 NOSIG RMK 1CU025 3CU030 A2975
Conditions at: RJTT (TOKYO INTL AIRPO, JP) observed 0800 UTC 14 August 2020
Temperature: 32.0°C (90°F)
Dewpoint: 26.0°C (79°F) [RH = 71%]
Pressure (altimeter): 29.73 inches Hg (1007.0 mb)
Winds: from the SSW (200 degrees) at 10 MPH (9 knots; 4.6 m/s)
Visibility: 6 or more miles (10+ km)
Ceiling: at least 12,000 feet AGL
Clouds: few clouds at 2500 feet AGL
scattered clouds at 3000 feet AGL
Weather: no significant weather observed at this time

METAR text: RJTT 140730Z 18012KT 9999 FEW030 32/26 Q1007 NOSIG RMK 2CU030 A2974
Conditions at: RJTT (TOKYO INTL AIRPO, JP) observed 0730 UTC 14 August 2020
Temperature: 32.0°C (90°F)
Dewpoint: 26.0°C (79°F) [RH = 71%]
Pressure (altimeter): 29.73 inches Hg (1007.0 mb)
Winds: from the S (180 degrees) at 14 MPH (12 knots; 6.2 m/s)
Visibility: 6 or more miles (10+ km)
Ceiling: at least 12,000 feet AGL
Clouds: few clouds at 3000 feet AGL
Weather: no significant weather observed at this time

METAR text: RJTT 140712Z 17013KT 9999 FEW030 32/27 Q1007 RMK 1CU030 A2974
Conditions at: RJTT (TOKYO INTL AIRPO, JP) observed 0712 UTC 14 August 2020
Temperature: 32.0°C (90°F)
Dewpoint: 27.0°C (81°F) [RH = 75%]
Pressure (altimeter): 29.73 inches Hg (1007.0 mb)
Winds: from the S (170 degrees) at 15 MPH (13 knots; 6.7 m/s)
Visibility: 6 or more miles (10+ km)
Ceiling: at least 12,000 feet AGL
Clouds: few clouds at 3000 feet AGL
Weather: no significant weather observed at this time

METAR text: RJTT 140700Z 11011KT 9999 FEW030 32/27 Q1007 BECMG TL0730 18012KT RMK 1CU030 A2974
Conditions at: RJTT (TOKYO INTL AIRPO, JP) observed 0700 UTC 14 August 2020
Temperature: 32.0°C (90°F)
Dewpoint: 27.0°C (81°F) [RH = 75%]
Pressure (altimeter): 29.73 inches Hg (1007.0 mb)
Winds: from the ESE (110 degrees) at 13 MPH (11 knots; 5.7 m/s)
Visibility: 6 or more miles (10+ km)
Ceiling: at least 12,000 feet AGL
Clouds: few clouds at 3000 feet AGL
Weather: no significant weather observed at this time

METAR text: RJTT 140630Z 09011KT 9999 FEW020 33/26 Q1007 BECMG 16012KT RMK 1CU020 A2974
Conditions at: RJTT (TOKYO INTL AIRPO, JP) observed 0630 UTC 14 August 2020
Temperature: 33.0°C (91°F)
Dewpoint: 26.0°C (79°F) [RH = 67%]
Pressure (altimeter): 29.73 inches Hg (1007.0 mb)
Winds: from the E (90 degrees) at 13 MPH (11 knots; 5.7 m/s)
Visibility: 6 or more miles (10+ km)
Ceiling: at least 12,000 feet AGL
Clouds: few clouds at 2000 feet AGL
Weather: no significant weather observed at this time

METAR text: RJTT 140600Z 10012KT 9999 FEW020 33/26 Q1007 BECMG 16012KT
Conditions at: RJTT (TOKYO INTL AIRPO, JP) observed 0600 UTC 14 August 2020
Temperature: 33.0°C (91°F)
Dewpoint: 26.0°C (79°F) [RH = 67%]
Pressure (altimeter): 29.73 inches Hg (1007.0 mb)
Winds: from the E (100 degrees) at 14 MPH (12 knots; 6.2 m/s)
Visibility: 6 or more miles (10+ km)
Ceiling: at least 12,000 feet AGL
Clouds: few clouds at 2000 feet AGL
Weather: no significant weather observed at this time

METAR text: RJTT 140530Z 11011KT 9999 FEW020 34/26 Q1007 NOSIG RMK 1CU020 A2974
Conditions at: RJTT (TOKYO INTL AIRPO, JP) observed 0530 UTC 14 August 2020
Temperature: 34.0°C (93°F)
Dewpoint: 26.0°C (79°F) [RH = 63%]
Pressure (altimeter): 29.73 inches Hg (1007.0 mb)
Winds: from the ESE (110 degrees) at 13 MPH (11 knots; 5.7 m/s)
Visibility: 6 or more miles (10+ km)
Ceiling: at least 12,000 feet AGL
Clouds: few clouds at 2000 feet AGL
Weather: no significant weather observed at this time

METAR text: RJTT 140500Z 11009KT 9999 FEW020 34/26 Q1007 NOSIG RMK 1CU020 A2976
Conditions at: RJTT (TOKYO INTL AIRPO, JP) observed 0500 UTC 14 August 2020
Temperature: 34.0°C (93°F)
Dewpoint: 26.0°C (79°F) [RH = 63%]
Pressure (altimeter): 29.73 inches Hg (1007.0 mb)
Winds: from the ESE (110 degrees) at 10 MPH (9 knots; 4.6 m/s)
Visibility: 6 or more miles (10+ km)
Ceiling: at least 12,000 feet AGL
Clouds: few clouds at 2000 feet AGL
Weather: no significant weather observed at this time

METAR text: RJTT 140430Z 09006KT 070V140 9999 FEW020 33/26 Q1007 BECMG 16010KT RMK 1CU020 A2976
Conditions at: RJTT (TOKYO INTL AIRPO, JP) observed 0430 UTC 14 August 2020
Temperature: 33.0°C (91°F)
Dewpoint: 26.0°C (79°F) [RH = 67%]
Pressure (altimeter): 29.73 inches Hg (1007.0 mb)
Winds: from the E (90 degrees) at 7 MPH (6 knots; 3.1 m/s)
Visibility: 6 or more miles (10+ km)
Ceiling: at least 12,000 feet AGL
Clouds: few clouds at 2000 feet AGL
Weather: no significant weather observed at this time

METAR text: RJTT 140400Z 09005KT 9999 FEW020 33/27 Q1007 NOSIG RMK 1CU020 A2976
Conditions at: RJTT (TOKYO INTL AIRPO, JP) observed 0400 UTC 14 August 2020
Temperature: 33.0°C (91°F)
Dewpoint: 27.0°C (81°F) [RH = 71%]
Pressure (altimeter): 29.73 inches Hg (1007.0 mb)
Winds: from the E (90 degrees) at 6 MPH (5 knots; 2.6 m/s)
Visibility: 6 or more miles (10+ km)
Ceiling: at least 12,000 feet AGL
Clouds: few clouds at 2000 feet AGL
Weather: no significant weather observed at this time

METAR text: RJTT 140330Z 08005KT 9999 FEW020 33/26 Q1007 NOSIG RMK 1CU020 A2976
Conditions at: RJTT (TOKYO INTL AIRPO, JP) observed 0330 UTC 14 August 2020
Temperature: 33.0°C (91°F)
Dewpoint: 26.0°C (79°F) [RH = 67%]
Pressure (altimeter): 29.73 inches Hg (1007.0 mb)
Winds: from the E (80 degrees) at 6 MPH (5 knots; 2.6 m/s)
Visibility: 6 or more miles (10+ km)
Ceiling: at least 12,000 feet AGL
Clouds: few clouds at 2000 feet AGL
Weather: no significant weather observed at this time

METAR text: RJTT 140300Z 08005KT 9999 FEW020 SCT/// 33/27 Q1008 NOSIG RMK 1CU020 A2977
Conditions at: RJTT (TOKYO INTL AIRPO, JP) observed 0300 UTC 14 August 2020
Temperature: 33.0°C (91°F)
Dewpoint: 27.0°C (81°F) [RH = 71%]
Pressure (altimeter): 29.76 inches Hg (1008.0 mb)
Winds: from the E (80 degrees) at 6 MPH (5 knots; 2.6 m/s)
Visibility: 6 or more miles (10+ km)
Ceiling: at least 12,000 feet AGL
Clouds: few clouds at 2000 feet AGL
Weather: no significant weather observed at this time

METAR text: RJTT 140230Z 08006KT 9999 FEW020 BKN/// 33/26 Q1008 NOSIG RMK 1CU020 A2977
Conditions at: RJTT (TOKYO INTL AIRPO, JP) observed 0230 UTC 14 August 2020
Temperature: 33.0°C (91°F)
Dewpoint: 26.0°C (79°F) [RH = 67%]
Pressure (altimeter): 29.76 inches Hg (1008.0 mb)
Winds: from the E (80 degrees) at 7 MPH (6 knots; 3.1 m/s)
Visibility: 6 or more miles (10+ km)
Ceiling: at least 12,000 feet AGL
Clouds: few clouds at 2000 feet AGL
Weather: no significant weather observed at this time

METAR text: RJTT 140200Z 08006KT 9999 FEW020 SCT050 BKN/// 32/26 Q1008 NOSIG RMK 1CU020 3SC050 A2978
Conditions at: RJTT (TOKYO INTL AIRPO, JP) observed 0200 UTC 14 August 2020
Temperature: 32.0°C (90°F)
Dewpoint: 26.0°C (79°F) [RH = 71%]
Pressure (altimeter): 29.76 inches Hg (1008.0 mb)
Winds: from the E (80 degrees) at 7 MPH (6 knots; 3.1 m/s)
Visibility: 6 or more miles (10+ km)
Ceiling: at least 12,000 feet AGL
Clouds: few clouds at 2000 feet AGL
scattered clouds at 5000 feet AGL
Weather: no significant weather observed at this time

METAR text: RJTT 140130Z 08007KT 9999 FEW020 SCT050 BKN/// 32/26 Q1008 NOSIG RMK 1CU020 3SC050 A2979
Conditions at: RJTT (TOKYO INTL AIRPO, JP) observed 0130 UTC 14 August 2020
Temperature: 32.0°C (90°F)
Dewpoint: 26.0°C (79°F) [RH = 71%]
Pressure (altimeter): 29.76 inches Hg (1008.0 mb)
Winds: from the E (80 degrees) at 8 MPH (7 knots; 3.6 m/s)
Visibility: 6 or more miles (10+ km)
Ceiling: at least 12,000 feet AGL
Clouds: few clouds at 2000 feet AGL
scattered clouds at 5000 feet AGL
Weather: no significant weather observed at this time

METAR text: RJTT 140100Z 08006KT 9999 FEW015 BKN/// 32/26 Q1008 NOSIG RMK 1CU015 A2979
Conditions at: RJTT (TOKYO INTL AIRPO, JP) observed 0100 UTC 14 August 2020
Temperature: 32.0°C (90°F)
Dewpoint: 26.0°C (79°F) [RH = 71%]
Pressure (altimeter): 29.76 inches Hg (1008.0 mb)
Winds: from the E (80 degrees) at 7 MPH (6 knots; 3.1 m/s)
Visibility: 6 or more miles (10+ km)
Ceiling: at least 12,000 feet AGL
Clouds: few clouds at 1500 feet AGL
Weather: no significant weather observed at this time

METAR text: RJTT 140030Z 08005KT 9999 FEW015 SCT/// 31/26 Q1008 NOSIG RMK 1CU015 A2979
Conditions at: RJTT (TOKYO INTL AIRPO, JP) observed 0030 UTC 14 August 2020
Temperature: 31.0°C (88°F)
Dewpoint: 26.0°C (79°F) [RH = 75%]
Pressure (altimeter): 29.76 inches Hg (1008.0 mb)
Winds: from the E (80 degrees) at 6 MPH (5 knots; 2.6 m/s)
Visibility: 6 or more miles (10+ km)
Ceiling: at least 12,000 feet AGL
Clouds: few clouds at 1500 feet AGL
Weather: no significant weather observed at this time

METAR text: RJTT 140000Z 04007KT 9999 FEW015 SCT/// 31/25 Q1009 NOSIG RMK 1CU015 A2980
Conditions at: RJTT (TOKYO INTL AIRPO, JP) observed 0000 UTC 14 August 2020
Temperature: 31.0°C (88°F)
Dewpoint: 25.0°C (77°F) [RH = 71%]
Pressure (altimeter): 29.79 inches Hg (1009.0 mb)
Winds: from the NE (40 degrees) at 8 MPH (7 knots; 3.6 m/s)
Visibility: 6 or more miles (10+ km)
Ceiling: at least 12,000 feet AGL
Clouds: few clouds at 1500 feet AGL
Weather: no significant weather observed at this time

METAR text: RJTT 132330Z 04007KT 9999 FEW015 30/25 Q1009 NOSIG RMK 1CU015 A2980
Conditions at: RJTT (TOKYO INTL AIRPO, JP) observed 2330 UTC 13 August 2020
Temperature: 30.0°C (86°F)
Dewpoint: 25.0°C (77°F) [RH = 75%]
Pressure (altimeter): 29.79 inches Hg (1009.0 mb)
Winds: from the NE (40 degrees) at 8 MPH (7 knots; 3.6 m/s)
Visibility: 6 or more miles (10+ km)
Ceiling: at least 12,000 feet AGL
Clouds: few clouds at 1500 feet AGL
Weather: no significant weather observed at this time

METAR text: RJTT 132300Z 03008KT 9999 FEW015 SCT/// 30/25 Q1009 NOSIG RMK 1CU015 A2980
Conditions at: RJTT (TOKYO INTL AIRPO, JP) observed 2300 UTC 13 August 2020
Temperature: 30.0°C (86°F)
Dewpoint: 25.0°C (77°F) [RH = 75%]
Pressure (altimeter): 29.79 inches Hg (1009.0 mb)
Winds: from the NNE (30 degrees) at 9 MPH (8 knots; 4.1 m/s)
Visibility: 6 or more miles (10+ km)
Ceiling: at least 12,000 feet AGL
Clouds: few clouds at 1500 feet AGL
Weather: no significant weather observed at this time

METAR text: RJTT 132230Z 02007KT CAVOK 29/25 Q1009 NOSIG RMK A2980
Conditions at: RJTT (TOKYO INTL AIRPO, JP) observed 2230 UTC 13 August 2020
Temperature: 29.0°C (84°F)
Dewpoint: 25.0°C (77°F) [RH = 79%]
Pressure (altimeter): 29.79 inches Hg (1009.0 mb)
Winds: from the NNE (20 degrees) at 8 MPH (7 knots; 3.6 m/s)
Visibility: 6 or more miles (10+ km)
Ceiling: ceiling and visibility are OK
Clouds: unknown
Weather: no significant weather observed at this time

METAR text: RJTT 132200Z 02007KT 9999 FEW015 BKN/// 29/25 Q1009 NOSIG RMK 1CU015 A2980
Conditions at: RJTT (TOKYO INTL AIRPO, JP) observed 2200 UTC 13 August 2020
Temperature: 29.0°C (84°F)
Dewpoint: 25.0°C (77°F) [RH = 79%]
Pressure (altimeter): 29.79 inches Hg (1009.0 mb)
Winds: from the NNE (20 degrees) at 8 MPH (7 knots; 3.6 m/s)
Visibility: 6 or more miles (10+ km)
Ceiling: at least 12,000 feet AGL
Clouds: few clouds at 1500 feet AGL
Weather: no significant weather observed at this time

METAR text: RJTT 132130Z 02006KT 9999 FEW015 SCT080 28/25 Q1009 NOSIG RMK 1CU015 4AC080 A2979
Conditions at: RJTT (TOKYO INTL AIRPO, JP) observed 2130 UTC 13 August 2020
Temperature: 28.0°C (82°F)
Dewpoint: 25.0°C (77°F) [RH = 84%]
Pressure (altimeter): 29.79 inches Hg (1009.0 mb)
Winds: from the NNE (20 degrees) at 7 MPH (6 knots; 3.1 m/s)
Visibility: 6 or more miles (10+ km)
Ceiling: at least 12,000 feet AGL
Clouds: few clouds at 1500 feet AGL
scattered clouds at 8000 feet AGL
Weather: no significant weather observed at this time

METAR text: RJTT 132100Z 02005KT 9999 FEW030 SCT080 BKN/// 28/25 Q1008 NOSIG RMK 1CU030 3AC080 A2979
Conditions at: RJTT (TOKYO INTL AIRPO, JP) observed 2100 UTC 13 August 2020
Temperature: 28.0°C (82°F)
Dewpoint: 25.0°C (77°F) [RH = 84%]
Pressure (altimeter): 29.76 inches Hg (1008.0 mb)
Winds: from the NNE (20 degrees) at 6 MPH (5 knots; 2.6 m/s)
Visibility: 6 or more miles (10+ km)
Ceiling: at least 12,000 feet AGL
Clouds: few clouds at 3000 feet AGL
scattered clouds at 8000 feet AGL
Weather: no significant weather observed at this time

METAR text: RJTT 132030Z 04008KT 9999 FEW030 27/25 Q1008 NOSIG RMK 1CU030 A2978
Conditions at: RJTT (TOKYO INTL AIRPO, JP) observed 2030 UTC 13 August 2020
Temperature: 27.0°C (81°F)
Dewpoint: 25.0°C (77°F) [RH = 89%]
Pressure (altimeter): 29.76 inches Hg (1008.0 mb)
Winds: from the NE (40 degrees) at 9 MPH (8 knots; 4.1 m/s)
Visibility: 6 or more miles (10+ km)
Ceiling: at least 12,000 feet AGL
Clouds: few clouds at 3000 feet AGL
Weather: no significant weather observed at this time

METAR text: RJTT 132000Z 03008KT 9999 FEW030 27/25 Q1008 NOSIG RMK 1CU030 A2977
Conditions at: RJTT (TOKYO INTL AIRPO, JP) observed 2000 UTC 13 August 2020
Temperature: 27.0°C (81°F)
Dewpoint: 25.0°C (77°F) [RH = 89%]
Pressure (altimeter): 29.76 inches Hg (1008.0 mb)
Winds: from the NNE (30 degrees) at 9 MPH (8 knots; 4.1 m/s)
Visibility: 6 or more miles (10+ km)
Ceiling: at least 12,000 feet AGL
Clouds: few clouds at 3000 feet AGL
Weather: no significant weather observed at this time

METAR text: RJTT 131930Z 03009KT 9999 FEW030 27/25 Q1007 NOSIG RMK 1CU030 A2976
Conditions at: RJTT (TOKYO INTL AIRPO, JP) observed 1930 UTC 13 August 2020
Temperature: 27.0°C (81°F)
Dewpoint: 25.0°C (77°F) [RH = 89%]
Pressure (altimeter): 29.73 inches Hg (1007.0 mb)
Winds: from the NNE (30 degrees) at 10 MPH (9 knots; 4.6 m/s)
Visibility: 6 or more miles (10+ km)
Ceiling: at least 12,000 feet AGL
Clouds: few clouds at 3000 feet AGL
Weather: no significant weather observed at this time

METAR text: RJTT 131900Z 03009KT 9999 FEW030 28/25 Q1007 NOSIG RMK 1CU030 A2976
Conditions at: RJTT (TOKYO INTL AIRPO, JP) observed 1900 UTC 13 August 2020
Temperature: 28.0°C (82°F)
Dewpoint: 25.0°C (77°F) [RH = 84%]
Pressure (altimeter): 29.73 inches Hg (1007.0 mb)
Winds: from the NNE (30 degrees) at 10 MPH (9 knots; 4.6 m/s)
Visibility: 6 or more miles (10+ km)
Ceiling: at least 12,000 feet AGL
Clouds: few clouds at 3000 feet AGL
Weather: no significant weather observed at this time

METAR text: RJTT 131830Z 03009KT 9999 FEW030 SCT/// 28/25 Q1007 NOSIG RMK 1CU030 A2976
Conditions at: RJTT (TOKYO INTL AIRPO, JP) observed 1830 UTC 13 August 2020
Temperature: 28.0°C (82°F)
Dewpoint: 25.0°C (77°F) [RH = 84%]
Pressure (altimeter): 29.73 inches Hg (1007.0 mb)
Winds: from the NNE (30 degrees) at 10 MPH (9 knots; 4.6 m/s)
Visibility: 6 or more miles (10+ km)
Ceiling: at least 12,000 feet AGL
Clouds: few clouds at 3000 feet AGL
Weather: no significant weather observed at this time

METAR text: RJTT 131800Z 03009KT CAVOK 28/25 Q1007 NOSIG RMK A2975
Conditions at: RJTT (TOKYO INTL AIRPO, JP) observed 1800 UTC 13 August 2020
Temperature: 28.0°C (82°F)
Dewpoint: 25.0°C (77°F) [RH = 84%]
Pressure (altimeter): 29.73 inches Hg (1007.0 mb)
Winds: from the NNE (30 degrees) at 10 MPH (9 knots; 4.6 m/s)
Visibility: 6 or more miles (10+ km)
Ceiling: ceiling and visibility are OK
Clouds: unknown
Weather: no significant weather observed at this time

METAR text: RJTT 131730Z 03007KT CAVOK 29/26 Q1007 NOSIG RMK A2975
Conditions at: RJTT (TOKYO INTL AIRPO, JP) observed 1730 UTC 13 August 2020
Temperature: 29.0°C (84°F)
Dewpoint: 26.0°C (79°F) [RH = 84%]
Pressure (altimeter): 29.73 inches Hg (1007.0 mb)
Winds: from the NNE (30 degrees) at 8 MPH (7 knots; 3.6 m/s)
Visibility: 6 or more miles (10+ km)
Ceiling: ceiling and visibility are OK
Clouds: unknown
Weather: no significant weather observed at this time

METAR text: RJTT 131700Z 04005KT CAVOK 29/26 Q1007 NOSIG RMK A2975
Conditions at: RJTT (TOKYO INTL AIRPO, JP) observed 1700 UTC 13 August 2020
Temperature: 29.0°C (84°F)
Dewpoint: 26.0°C (79°F) [RH = 84%]
Pressure (altimeter): 29.73 inches Hg (1007.0 mb)
Winds: from the NE (40 degrees) at 6 MPH (5 knots; 2.6 m/s)
Visibility: 6 or more miles (10+ km)
Ceiling: ceiling and visibility are OK
Clouds: unknown
Weather: no significant weather observed at this time

METAR text: RJTT 131630Z 02004KT CAVOK 29/26 Q1007 NOSIG RMK A2975
Conditions at: RJTT (TOKYO INTL AIRPO, JP) observed 1630 UTC 13 August 2020
Temperature: 29.0°C (84°F)
Dewpoint: 26.0°C (79°F) [RH = 84%]
Pressure (altimeter): 29.73 inches Hg (1007.0 mb)
Winds: from the NNE (20 degrees) at 5 MPH (4 knots; 2.1 m/s)
Visibility: 6 or more miles (10+ km)
Ceiling: ceiling and visibility are OK
Clouds: unknown
Weather: no significant weather observed at this time

METAR text: RJTT 131600Z 33004KT CAVOK 29/25 Q1007 NOSIG RMK A2976
Conditions at: RJTT (TOKYO INTL AIRPO, JP) observed 1600 UTC 13 August 2020
Temperature: 29.0°C (84°F)
Dewpoint: 25.0°C (77°F) [RH = 79%]
Pressure (altimeter): 29.73 inches Hg (1007.0 mb)
Winds: from the NNW (330 degrees) at 5 MPH (4 knots; 2.1 m/s)
Visibility: 6 or more miles (10+ km)
Ceiling: ceiling and visibility are OK
Clouds: unknown
Weather: no significant weather observed at this time

METAR text: RJTT 131530Z 02004KT 340V050 CAVOK 28/25 Q1008 NOSIG RMK A2977
Conditions at: RJTT (TOKYO INTL AIRPO, JP) observed 1530 UTC 13 August 2020
Temperature: 28.0°C (82°F)
Dewpoint: 25.0°C (77°F) [RH = 84%]
Pressure (altimeter): 29.76 inches Hg (1008.0 mb)
Winds: from the NNE (20 degrees) at 5 MPH (4 knots; 2.1 m/s)
Visibility: 6 or more miles (10+ km)
Ceiling: ceiling and visibility are OK
Clouds: unknown
Weather: no significant weather observed at this time

METAR text: RJTT 131500Z 05005KT CAVOK 29/26 Q1008 NOSIG RMK A2978
Conditions at: RJTT (TOKYO INTL AIRPO, JP) observed 1500 UTC 13 August 2020
Temperature: 29.0°C (84°F)
Dewpoint: 26.0°C (79°F) [RH = 84%]
Pressure (altimeter): 29.76 inches Hg (1008.0 mb)
Winds: from the NE (50 degrees) at 6 MPH (5 knots; 2.6 m/s)
Visibility: 6 or more miles (10+ km)
Ceiling: ceiling and visibility are OK
Clouds: unknown
Weather: no significant weather observed at this time

METAR text: RJTT 131430Z 06007KT 9999 FEW030 29/26 Q1008 BECMG 04006KT RMK 1CU030 A2979
Conditions at: RJTT (TOKYO INTL AIRPO, JP) observed 1430 UTC 13 August 2020
Temperature: 29.0°C (84°F)
Dewpoint: 26.0°C (79°F) [RH = 84%]
Pressure (altimeter): 29.76 inches Hg (1008.0 mb)
Winds: from the ENE (60 degrees) at 8 MPH (7 knots; 3.6 m/s)
Visibility: 6 or more miles (10+ km)
Ceiling: at least 12,000 feet AGL
Clouds: few clouds at 3000 feet AGL
Weather: no significant weather observed at this time

Forecast for: RJTT (TOKYO INTL AIRPO, JP)
Text: TAF RJTT 142305Z 1500/1606 18010KT 9999 FEW030
Forecast period: 0000 to 1200 UTC 15 August 2020
Forecast type: FROM: standard forecast or significant change
Winds: from the S (180 degrees) at 12 MPH (10 knots; 5.1 m/s)
Visibility: 6 or more miles (10+ km)
Ceiling: at least 12,000 feet AGL
Clouds: few clouds at 3000 feet AGL
Weather: no significant weather forecast for this period
Text: BECMG 1512/1515 04005KT
Forecast period: 1200 UTC 15 August 2020 to 0000 UTC 16 August 2020
Forecast type: BECOMING: Conditions expected to become as follows by 1500 UTC 15 August 2020
Winds: from the NE (40 degrees) at 6 MPH (5 knots; 2.6 m/s)
Visibility: 6 or more miles (10+ km)
Ceiling: at least 12,000 feet AGL
Clouds: few clouds at 3000 feet AGL
Weather: no significant weather forecast for this period
Text: BECMG 1600/1603 10005KT
Forecast period: 0000 to 0600 UTC 16 August 2020
Forecast type: BECOMING: Conditions expected to become as follows by 0300 UTC 16 August 2020
Winds: from the E (100 degrees) at 6 MPH (5 knots; 2.6 m/s)
Visibility: 6 or more miles (10+ km)
Ceiling: at least 12,000 feet AGL
Clouds: few clouds at 3000 feet AGL
Weather: no significant weather forecast for this period